Strona główna
METAR-TAF:

METAR-TAF

Lotnisko :

Hrabstwo Jasper, Indiana, Stany Zjednoczone

Szerokość geograficzna: 40-56-52N, Długość geograficzna: 087-10-57W, wysokość: 213 m

Aktualna obserwacja pogody

Raport powstał 23 minut temu, godzina 05:55 UTC
Wiatr 20 kt od zachód w porywach dochodzący do 25 kt
Temperatura -4°C
Wilgotność 86%
Ciśnienie 1012 hPa
Widzialność: 16.1 km
Zachmurzenie całkowite na wysokości 1400 ft

METAR: KRZL 100555Z AUTO 27020G25KT 10SM OVC014 M04/M06 A2987 RMK AO2

czas: 01:18 (06:18 UTC)


TAF: brakujący

Obserwacja i prognoza pogody dla ponad 4000 lotnisk (raport METAR i TAF).

Dostępne stacje oznaczono żółtymi i czerwonymi punktami na mapie.

Najedź kursorem aby zobaczyć nazwę stacji.

Kliknij aby zobaczyć obserwacje i prognozy pogody.

Aby zmienić mapę: kliknij na zielony przycisk z czarnym krzyżykiem, aby powiększyć; na zielony przycisk z myślnikiem, aby pomniejszyć; na zielone strzałki, aby przejść do map sąsiednich.


METAR-TAF: